sensor_id;sensor_type;location;lat;lon;timestamp;temperature;humidity
13488;DHT22;6816;48.506;9.050;2022-12-18T00:11:10;-7.00;93.50
13488;DHT22;6816;48.506;9.050;2022-12-18T00:15:04;-6.90;93.50
13488;DHT22;6816;48.506;9.050;2022-12-18T00:22:59;-7.00;93.40
13488;DHT22;6816;48.506;9.050;2022-12-18T04:28:02;-7.90;93.00
13488;DHT22;6816;48.506;9.050;2022-12-18T04:31:04;-7.90;92.90
13488;DHT22;6816;48.506;9.050;2022-12-18T04:34:05;-7.90;93.00
13488;DHT22;6816;48.506;9.050;2022-12-18T04:37:06;-7.50;93.00
13488;DHT22;6816;48.506;9.050;2022-12-18T04:40:07;-7.40;93.00
13488;DHT22;6816;48.506;9.050;2022-12-18T04:43:09;-8.10;92.90
13488;DHT22;6816;48.506;9.050;2022-12-18T04:46:10;-8.00;92.80
13488;DHT22;6816;48.506;9.050;2022-12-18T04:49:10;-8.00;92.80
13488;DHT22;6816;48.506;9.050;2022-12-18T04:52:13;-8.00;92.80
13488;DHT22;6816;48.506;9.050;2022-12-18T04:55:14;-7.50;92.90
13488;DHT22;6816;48.506;9.050;2022-12-18T04:58:15;-8.00;92.70
13488;DHT22;6816;48.506;9.050;2022-12-18T05:01:17;-7.90;92.70
13488;DHT22;6816;48.506;9.050;2022-12-18T05:04:18;-7.70;92.80
13488;DHT22;6816;48.506;9.050;2022-12-18T05:07:22;-7.40;93.10
13488;DHT22;6816;48.506;9.050;2022-12-18T05:10:25;-8.00;92.80
13488;DHT22;6816;48.506;9.050;2022-12-18T05:13:27;-8.00;92.70
13488;DHT22;6816;48.506;9.050;2022-12-18T05:16:29;-8.00;92.60
13488;DHT22;6816;48.506;9.050;2022-12-18T05:19:31;-6.70;92.80
13488;DHT22;6816;48.506;9.050;2022-12-18T05:22:32;-8.10;92.30
13488;DHT22;6816;48.506;9.050;2022-12-18T05:25:33;-8.10;92.40
13488;DHT22;6816;48.506;9.050;2022-12-18T05:28:35;-7.70;92.30
13488;DHT22;6816;48.506;9.050;2022-12-18T05:31:36;-8.00;92.30
13488;DHT22;6816;48.506;9.050;2022-12-18T05:34:38;-8.20;92.00
13488;DHT22;6816;48.506;9.050;2022-12-18T05:37:41;-8.00;92.00
13488;DHT22;6816;48.506;9.050;2022-12-18T05:40:43;-7.00;92.20
13488;DHT22;6816;48.506;9.050;2022-12-18T05:43:45;-7.40;92.20
13488;DHT22;6816;48.506;9.050;2022-12-18T05:46:48;-8.40;92.00
13488;DHT22;6816;48.506;9.050;2022-12-18T05:49:49;-7.30;92.50
13488;DHT22;6816;48.506;9.050;2022-12-18T05:52:50;-8.10;92.20
13488;DHT22;6816;48.506;9.050;2022-12-18T05:55:52;-8.20;92.20
13488;DHT22;6816;48.506;9.050;2022-12-18T05:58:54;-8.40;92.30
13488;DHT22;6816;48.506;9.050;2022-12-18T06:01:55;-8.40;92.30
13488;DHT22;6816;48.506;9.050;2022-12-18T06:04:57;-8.40;92.30
13488;DHT22;6816;48.506;9.050;2022-12-18T06:07:58;-7.80;92.50
13488;DHT22;6816;48.506;9.050;2022-12-18T06:10:58;-8.00;92.40
13488;DHT22;6816;48.506;9.050;2022-12-18T06:14:00;-7.80;92.50
13488;DHT22;6816;48.506;9.050;2022-12-18T06:17:01;-8.50;92.30
13488;DHT22;6816;48.506;9.050;2022-12-18T06:20:03;-8.40;92.10
13488;DHT22;6816;48.506;9.050;2022-12-18T06:23:06;-8.40;92.20
13488;DHT22;6816;48.506;9.050;2022-12-18T06:26:08;-8.40;92.10
13488;DHT22;6816;48.506;9.050;2022-12-18T06:29:10;-7.90;92.30
13488;DHT22;6816;48.506;9.050;2022-12-18T06:32:12;-8.40;92.20
13488;DHT22;6816;48.506;9.050;2022-12-18T06:35:14;-8.50;92.00
13488;DHT22;6816;48.506;9.050;2022-12-18T06:38:15;-7.70;92.20
13488;DHT22;6816;48.506;9.050;2022-12-18T06:41:19;-7.90;92.30
13488;DHT22;6816;48.506;9.050;2022-12-18T06:44:20;-8.50;92.20
13488;DHT22;6816;48.506;9.050;2022-12-18T06:47:22;-8.50;92.30
13488;DHT22;6816;48.506;9.050;2022-12-18T06:50:25;-8.50;92.40
13488;DHT22;6816;48.506;9.050;2022-12-18T06:53:26;-8.50;92.40
13488;DHT22;6816;48.506;9.050;2022-12-18T06:56:28;-8.50;92.40
13488;DHT22;6816;48.506;9.050;2022-12-18T06:59:31;-8.50;92.50
13488;DHT22;6816;48.506;9.050;2022-12-18T07:02:32;-8.00;92.60
13488;DHT22;6816;48.506;9.050;2022-12-18T07:05:33;-8.30;92.50
13488;DHT22;6816;48.506;9.050;2022-12-18T07:08:35;-7.60;92.60
13488;DHT22;6816;48.506;9.050;2022-12-18T07:11:37;-8.40;92.60
13488;DHT22;6816;48.506;9.050;2022-12-18T07:14:39;-8.40;92.40
13488;DHT22;6816;48.506;9.050;2022-12-18T07:17:40;-7.50;92.60
13488;DHT22;6816;48.506;9.050;2022-12-18T07:20:41;-8.50;92.60
13488;DHT22;6816;48.506;9.050;2022-12-18T07:23:43;-7.70;92.60
13488;DHT22;6816;48.506;9.050;2022-12-18T07:26:46;-8.40;92.40
13488;DHT22;6816;48.506;9.050;2022-12-18T07:29:47;-7.90;92.60
13488;DHT22;6816;48.506;9.050;2022-12-18T07:32:49;-8.40;92.30
13488;DHT22;6816;48.506;9.050;2022-12-18T07:35:51;-7.70;92.60
13488;DHT22;6816;48.506;9.050;2022-12-18T07:38:52;-8.50;92.40
13488;DHT22;6816;48.506;9.050;2022-12-18T07:41:54;-8.50;92.30
13488;DHT22;6816;48.506;9.050;2022-12-18T07:45:15;-8.00;92.50
13488;DHT22;6816;48.506;9.050;2022-12-18T07:48:15;-8.50;92.20
13488;DHT22;6816;48.506;9.050;2022-12-18T07:51:17;-8.50;92.30
13488;DHT22;6816;48.506;9.050;2022-12-18T07:54:18;-8.50;92.30
13488;DHT22;6816;48.506;9.050;2022-12-18T07:57:20;-7.60;92.50
13488;DHT22;6816;48.506;9.050;2022-12-18T08:00:21;-8.50;92.20
13488;DHT22;6816;48.506;9.050;2022-12-18T08:03:22;-8.00;92.50
13488;DHT22;6816;48.506;9.050;2022-12-18T08:06:25;-8.30;92.40
13488;DHT22;6816;48.506;9.050;2022-12-18T08:09:26;-7.90;92.50
13488;DHT22;6816;48.506;9.050;2022-12-18T08:12:31;-7.70;92.50
13488;DHT22;6816;48.506;9.050;2022-12-18T08:15:32;-8.50;92.20
13488;DHT22;6816;48.506;9.050;2022-12-18T08:18:36;-7.90;92.40
13488;DHT22;6816;48.506;9.050;2022-12-18T08:21:37;-8.30;92.20
13488;DHT22;6816;48.506;9.050;2022-12-18T08:24:38;-8.50;92.00
13488;DHT22;6816;48.506;9.050;2022-12-18T08:27:39;-7.40;92.30
13488;DHT22;6816;48.506;9.050;2022-12-18T08:30:41;-8.50;92.00
13488;DHT22;6816;48.506;9.050;2022-12-18T08:33:42;-8.70;91.90
13488;DHT22;6816;48.506;9.050;2022-12-18T08:36:44;-7.30;92.30
13488;DHT22;6816;48.506;9.050;2022-12-18T08:39:45;-8.30;92.00
13488;DHT22;6816;48.506;9.050;2022-12-18T08:42:46;-8.50;91.80
13488;DHT22;6816;48.506;9.050;2022-12-18T08:46:06;-7.90;92.00
13488;DHT22;6816;48.506;9.050;2022-12-18T08:49:09;-8.60;91.90
13488;DHT22;6816;48.506;9.050;2022-12-18T08:52:11;-8.60;91.90
13488;DHT22;6816;48.506;9.050;2022-12-18T08:55:12;-8.30;91.90
13488;DHT22;6816;48.506;9.050;2022-12-18T08:58:13;-8.50;91.80
13488;DHT22;6816;48.506;9.050;2022-12-18T09:01:13;-8.70;91.80
13488;DHT22;6816;48.506;9.050;2022-12-18T09:04:15;-8.60;91.80
13488;DHT22;6816;48.506;9.050;2022-12-18T09:07:18;-7.70;92.20
13488;DHT22;6816;48.506;9.050;2022-12-18T09:10:19;-7.60;92.30
13488;DHT22;6816;48.506;9.050;2022-12-18T09:13:23;-8.60;92.20
13488;DHT22;6816;48.506;9.050;2022-12-18T09:16:26;-8.80;92.10
13488;DHT22;6816;48.506;9.050;2022-12-18T09:19:29;-8.50;92.30
13488;DHT22;6816;48.506;9.050;2022-12-18T09:22:30;-8.30;92.40
13488;DHT22;6816;48.506;9.050;2022-12-18T09:25:33;-8.40;92.60
13488;DHT22;6816;48.506;9.050;2022-12-18T09:28:36;-8.30;92.70
13488;DHT22;6816;48.506;9.050;2022-12-18T09:31:38;-8.20;92.70
13488;DHT22;6816;48.506;9.050;2022-12-18T09:34:39;-8.20;92.60
13488;DHT22;6816;48.506;9.050;2022-12-18T09:37:40;-7.50;92.80
13488;DHT22;6816;48.506;9.050;2022-12-18T09:40:51;-6.90;93.00
13488;DHT22;6816;48.506;9.050;2022-12-18T09:48:38;-8.00;92.50
13488;DHT22;6816;48.506;9.050;2022-12-18T09:52:34;-7.80;92.60
13488;DHT22;6816;48.506;9.050;2022-12-18T09:55:48;-7.70;92.70
13488;DHT22;6816;48.506;9.050;2022-12-18T09:59:24;-7.60;92.80
13488;DHT22;6816;48.506;9.050;2022-12-18T10:02:29;-7.30;93.00
13488;DHT22;6816;48.506;9.050;2022-12-18T10:06:04;-7.10;93.10
13488;DHT22;6816;48.506;9.050;2022-12-18T10:12:41;-7.50;93.20
13488;DHT22;6816;48.506;9.050;2022-12-18T10:19:01;-7.30;93.20
13488;DHT22;6816;48.506;9.050;2022-12-18T10:22:18;-7.30;93.30
13488;DHT22;6816;48.506;9.050;2022-12-18T10:25:27;-7.10;93.80
13488;DHT22;6816;48.506;9.050;2022-12-18T10:28:31;-6.90;94.40
13488;DHT22;6816;48.506;9.050;2022-12-18T10:31:32;-5.80;95.20
13488;DHT22;6816;48.506;9.050;2022-12-18T10:34:33;-6.40;95.40
13488;DHT22;6816;48.506;9.050;2022-12-18T10:37:35;-6.10;95.50
13488;DHT22;6816;48.506;9.050;2022-12-18T10:40:58;-5.60;95.60
13488;DHT22;6816;48.506;9.050;2022-12-18T10:44:19;-5.20;95.10
13488;DHT22;6816;48.506;9.050;2022-12-18T10:47:22;-5.30;94.90
13488;DHT22;6816;48.506;9.050;2022-12-18T10:50:34;-5.10;95.50
13488;DHT22;6816;48.506;9.050;2022-12-18T10:53:36;-4.90;95.20
13488;DHT22;6816;48.506;9.050;2022-12-18T10:56:39;-4.50;95.40
13488;DHT22;6816;48.506;9.050;2022-12-18T10:59:54;-4.60;95.30
13488;DHT22;6816;48.506;9.050;2022-12-18T11:02:58;-4.30;95.20
13488;DHT22;6816;48.506;9.050;2022-12-18T11:06:04;-4.20;95.60
13488;DHT22;6816;48.506;9.050;2022-12-18T11:09:20;-4.00;95.20
13488;DHT22;6816;48.506;9.050;2022-12-18T11:12:22;-3.80;94.80
13488;DHT22;6816;48.506;9.050;2022-12-18T11:15:29;-3.70;95.40
13488;DHT22;6816;48.506;9.050;2022-12-18T11:18:35;-3.40;95.40
13488;DHT22;6816;48.506;9.050;2022-12-18T11:21:40;-3.10;95.50
13488;DHT22;6816;48.506;9.050;2022-12-18T11:24:55;-3.00;95.60
13488;DHT22;6816;48.506;9.050;2022-12-18T11:28:04;-3.00;95.90
13488;DHT22;6816;48.506;9.050;2022-12-18T11:31:24;-2.60;96.60
13488;DHT22;6816;48.506;9.050;2022-12-18T11:34:37;-2.50;95.50
13488;DHT22;6816;48.506;9.050;2022-12-18T11:37:53;-2.10;96.00
13488;DHT22;6816;48.506;9.050;2022-12-18T11:41:25;-2.10;95.30
13488;DHT22;6816;48.506;9.050;2022-12-18T11:48:22;-1.90;95.50
13488;DHT22;6816;48.506;9.050;2022-12-18T11:51:33;-1.80;94.30
13488;DHT22;6816;48.506;9.050;2022-12-18T11:54:34;-1.70;94.40
13488;DHT22;6816;48.506;9.050;2022-12-18T12:00:50;-1.70;94.00
13488;DHT22;6816;48.506;9.050;2022-12-18T12:07:16;-1.80;94.20
13488;DHT22;6816;48.506;9.050;2022-12-18T12:18:13;-1.90;93.30
13488;DHT22;6816;48.506;9.050;2022-12-18T12:34:30;-1.90;93.50
13488;DHT22;6816;48.506;9.050;2022-12-18T12:37:42;-2.00;94.10
13488;DHT22;6816;48.506;9.050;2022-12-18T12:41:03;-2.00;93.90
13488;DHT22;6816;48.506;9.050;2022-12-18T12:44:08;-2.00;93.90
13488;DHT22;6816;48.506;9.050;2022-12-18T12:47:17;-2.00;94.10
13488;DHT22;6816;48.506;9.050;2022-12-18T12:50:20;-2.00;94.20
13488;DHT22;6816;48.506;9.050;2022-12-18T12:53:32;-2.00;94.40
13488;DHT22;6816;48.506;9.050;2022-12-18T12:57:09;-2.00;94.10
13488;DHT22;6816;48.506;9.050;2022-12-18T13:00:16;-2.00;93.90
13488;DHT22;6816;48.506;9.050;2022-12-18T13:03:29;-2.00;94.30
13488;DHT22;6816;48.506;9.050;2022-12-18T13:06:53;-2.00;94.30
13488;DHT22;6816;48.506;9.050;2022-12-18T13:10:26;-2.00;94.10
13488;DHT22;6816;48.506;9.050;2022-12-18T13:13:50;-1.90;94.00
13488;DHT22;6816;48.506;9.050;2022-12-18T13:16:52;-1.90;94.10
13488;DHT22;6816;48.506;9.050;2022-12-18T13:20:14;-1.90;94.70
13488;DHT22;6816;48.506;9.050;2022-12-18T13:29:44;-1.90;94.70
13488;DHT22;6816;48.506;9.050;2022-12-18T13:32:45;-1.90;94.20
13488;DHT22;6816;48.506;9.050;2022-12-18T13:38:46;-1.90;94.70
13488;DHT22;6816;48.506;9.050;2022-12-18T13:41:52;-1.90;94.70
13488;DHT22;6816;48.506;9.050;2022-12-18T13:44:53;-2.00;94.50
13488;DHT22;6816;48.506;9.050;2022-12-18T13:47:54;-2.00;94.70
13488;DHT22;6816;48.506;9.050;2022-12-18T13:50:59;-1.90;94.70
13488;DHT22;6816;48.506;9.050;2022-12-18T13:54:02;-2.00;94.60
13488;DHT22;6816;48.506;9.050;2022-12-18T13:57:05;-2.00;94.70
13488;DHT22;6816;48.506;9.050;2022-12-18T14:03:24;-1.90;94.40
13488;DHT22;6816;48.506;9.050;2022-12-18T14:06:26;-1.90;94.70
13488;DHT22;6816;48.506;9.050;2022-12-18T14:09:30;-2.00;94.70
13488;DHT22;6816;48.506;9.050;2022-12-18T14:12:32;-2.00;94.50
13488;DHT22;6816;48.506;9.050;2022-12-18T14:15:52;-2.00;94.50
13488;DHT22;6816;48.506;9.050;2022-12-18T14:18:55;-2.10;94.50
13488;DHT22;6816;48.506;9.050;2022-12-18T14:21:58;-2.10;94.30
13488;DHT22;6816;48.506;9.050;2022-12-18T14:28:18;-2.20;93.90
13488;DHT22;6816;48.506;9.050;2022-12-18T14:31:20;-2.30;94.40
13488;DHT22;6816;48.506;9.050;2022-12-18T14:34:26;-2.30;94.40
13488;DHT22;6816;48.506;9.050;2022-12-18T14:37:27;-2.30;94.30
13488;DHT22;6816;48.506;9.050;2022-12-18T14:40:28;-2.30;94.40
13488;DHT22;6816;48.506;9.050;2022-12-18T14:43:31;-2.30;94.50
13488;DHT22;6816;48.506;9.050;2022-12-18T14:46:35;-2.40;94.40
13488;DHT22;6816;48.506;9.050;2022-12-18T14:49:36;-2.40;94.50
13488;DHT22;6816;48.506;9.050;2022-12-18T14:52:38;-2.40;94.50
13488;DHT22;6816;48.506;9.050;2022-12-18T14:55:46;-2.50;94.40
13488;DHT22;6816;48.506;9.050;2022-12-18T14:58:53;-2.50;94.10
13488;DHT22;6816;48.506;9.050;2022-12-18T15:05:28;-2.60;94.00
13488;DHT22;6816;48.506;9.050;2022-12-18T15:08:38;-2.70;93.90
13488;DHT22;6816;48.506;9.050;2022-12-18T15:14:42;-2.80;93.90
13488;DHT22;6816;48.506;9.050;2022-12-18T15:17:42;-2.90;93.90
13488;DHT22;6816;48.506;9.050;2022-12-18T15:20:52;-3.00;93.80
13488;DHT22;6816;48.506;9.050;2022-12-18T15:23:53;-3.10;93.70
13488;DHT22;6816;48.506;9.050;2022-12-18T15:26:53;-3.20;93.70
13488;DHT22;6816;48.506;9.050;2022-12-18T15:33:24;-3.40;93.40
13488;DHT22;6816;48.506;9.050;2022-12-18T15:36:25;-3.50;93.20
13488;DHT22;6816;48.506;9.050;2022-12-18T15:39:26;-3.60;93.30
13488;DHT22;6816;48.506;9.050;2022-12-18T15:42:27;-3.70;93.30
13488;DHT22;6816;48.506;9.050;2022-12-18T15:45:46;-3.80;93.20
13488;DHT22;6816;48.506;9.050;2022-12-18T15:48:51;-3.80;93.30
13488;DHT22;6816;48.506;9.050;2022-12-18T15:51:54;-3.90;93.20
13488;DHT22;6816;48.506;9.050;2022-12-18T15:54:56;-4.00;93.30
13488;DHT22;6816;48.506;9.050;2022-12-18T15:58:15;-4.10;93.40
13488;DHT22;6816;48.506;9.050;2022-12-18T16:01:16;-4.20;93.30
13488;DHT22;6816;48.506;9.050;2022-12-18T16:04:18;-4.20;93.40
13488;DHT22;6816;48.506;9.050;2022-12-18T16:07:21;-4.30;93.50
13488;DHT22;6816;48.506;9.050;2022-12-18T16:10:22;-4.30;93.60
13488;DHT22;6816;48.506;9.050;2022-12-18T16:13:23;-4.40;93.60
13488;DHT22;6816;48.506;9.050;2022-12-18T16:16:24;-4.40;93.70
13488;DHT22;6816;48.506;9.050;2022-12-18T16:19:25;-4.40;93.80
13488;DHT22;6816;48.506;9.050;2022-12-18T16:22:29;-4.40;93.90
13488;DHT22;6816;48.506;9.050;2022-12-18T16:25:30;-4.40;94.00
13488;DHT22;6816;48.506;9.050;2022-12-18T16:28:30;-4.30;94.20
13488;DHT22;6816;48.506;9.050;2022-12-18T16:31:31;-4.40;94.20
13488;DHT22;6816;48.506;9.050;2022-12-18T16:34:33;-4.40;94.30
13488;DHT22;6816;48.506;9.050;2022-12-18T16:37:34;-4.40;94.50
13488;DHT22;6816;48.506;9.050;2022-12-18T16:40:35;-4.30;94.60
13488;DHT22;6816;48.506;9.050;2022-12-18T16:43:55;-4.20;94.70
13488;DHT22;6816;48.506;9.050;2022-12-18T16:46:56;-4.30;94.80
13488;DHT22;6816;48.506;9.050;2022-12-18T16:50:02;-4.20;94.80
13488;DHT22;6816;48.506;9.050;2022-12-18T16:53:03;-4.20;94.90
13488;DHT22;6816;48.506;9.050;2022-12-18T16:56:03;-4.20;95.00
13488;DHT22;6816;48.506;9.050;2022-12-18T16:59:04;-4.10;95.00
13488;DHT22;6816;48.506;9.050;2022-12-18T17:02:09;-4.10;95.00
13488;DHT22;6816;48.506;9.050;2022-12-18T17:05:11;-4.10;95.00
13488;DHT22;6816;48.506;9.050;2022-12-18T17:08:12;-4.10;95.10
13488;DHT22;6816;48.506;9.050;2022-12-18T17:11:12;-4.00;95.10
13488;DHT22;6816;48.506;9.050;2022-12-18T17:14:18;-4.00;95.20
13488;DHT22;6816;48.506;9.050;2022-12-18T17:17:20;-3.90;95.20
13488;DHT22;6816;48.506;9.050;2022-12-18T17:20:21;-3.90;95.30
13488;DHT22;6816;48.506;9.050;2022-12-18T17:23:21;-3.80;95.40
13488;DHT22;6816;48.506;9.050;2022-12-18T17:26:22;-3.80;95.30
13488;DHT22;6816;48.506;9.050;2022-12-18T17:29:23;-3.80;95.40
13488;DHT22;6816;48.506;9.050;2022-12-18T17:32:23;-3.80;95.40
13488;DHT22;6816;48.506;9.050;2022-12-18T17:35:24;-3.60;95.50
13488;DHT22;6816;48.506;9.050;2022-12-18T17:38:25;-3.70;95.40
13488;DHT22;6816;48.506;9.050;2022-12-18T17:41:26;-3.70;95.40
13488;DHT22;6816;48.506;9.050;2022-12-18T17:44:27;-3.70;95.40
13488;DHT22;6816;48.506;9.050;2022-12-18T17:47:28;-3.60;95.50
13488;DHT22;6816;48.506;9.050;2022-12-18T17:50:28;-3.60;95.50
13488;DHT22;6816;48.506;9.050;2022-12-18T17:53:29;-3.60;95.50
13488;DHT22;6816;48.506;9.050;2022-12-18T17:56:30;-3.60;95.60
13488;DHT22;6816;48.506;9.050;2022-12-18T17:59:31;-3.50;95.60
13488;DHT22;6816;48.506;9.050;2022-12-18T18:02:31;-3.40;95.60
13488;DHT22;6816;48.506;9.050;2022-12-18T18:05:32;-3.50;95.60
13488;DHT22;6816;48.506;9.050;2022-12-18T18:08:34;-3.50;95.60
13488;DHT22;6816;48.506;9.050;2022-12-18T18:11:35;-3.40;95.50
13488;DHT22;6816;48.506;9.050;2022-12-18T18:14:54;-3.20;95.60
13488;DHT22;6816;48.506;9.050;2022-12-18T18:17:54;-3.40;95.60
13488;DHT22;6816;48.506;9.050;2022-12-18T18:20:55;-3.40;96.00
13488;DHT22;6816;48.506;9.050;2022-12-18T18:23:59;-3.40;95.60
13488;DHT22;6816;48.506;9.050;2022-12-18T18:27:00;-3.30;95.70
13488;DHT22;6816;48.506;9.050;2022-12-18T18:30:01;-3.30;95.80
13488;DHT22;6816;48.506;9.050;2022-12-18T18:33:01;-3.30;95.80
13488;DHT22;6816;48.506;9.050;2022-12-18T18:36:02;-3.30;95.80
13488;DHT22;6816;48.506;9.050;2022-12-18T18:39:03;-3.30;95.90
13488;DHT22;6816;48.506;9.050;2022-12-18T18:42:04;-3.20;95.90
13488;DHT22;6816;48.506;9.050;2022-12-18T18:45:05;-3.20;96.00
13488;DHT22;6816;48.506;9.050;2022-12-18T18:48:05;-3.20;95.90
13488;DHT22;6816;48.506;9.050;2022-12-18T18:51:08;-3.20;95.90
13488;DHT22;6816;48.506;9.050;2022-12-18T18:54:09;-3.00;96.00
13488;DHT22;6816;48.506;9.050;2022-12-18T18:57:10;-3.10;96.00
13488;DHT22;6816;48.506;9.050;2022-12-18T19:00:11;-3.10;96.00
13488;DHT22;6816;48.506;9.050;2022-12-18T19:03:14;-3.00;96.00
13488;DHT22;6816;48.506;9.050;2022-12-18T19:06:17;-2.90;96.10
13488;DHT22;6816;48.506;9.050;2022-12-18T19:09:18;-3.00;96.00
13488;DHT22;6816;48.506;9.050;2022-12-18T19:12:20;-2.90;96.10
13488;DHT22;6816;48.506;9.050;2022-12-18T19:15:39;-3.00;96.10
13488;DHT22;6816;48.506;9.050;2022-12-18T19:18:39;-2.90;96.10
13488;DHT22;6816;48.506;9.050;2022-12-18T19:21:40;-2.90;96.20
13488;DHT22;6816;48.506;9.050;2022-12-18T19:24:41;-2.90;96.20
13488;DHT22;6816;48.506;9.050;2022-12-18T19:27:41;-2.90;96.10
13488;DHT22;6816;48.506;9.050;2022-12-18T19:30:42;-2.90;96.10
13488;DHT22;6816;48.506;9.050;2022-12-18T19:33:45;-2.90;96.10
13488;DHT22;6816;48.506;9.050;2022-12-18T19:36:46;-2.90;96.00
13488;DHT22;6816;48.506;9.050;2022-12-18T19:39:47;-2.90;96.00
13488;DHT22;6816;48.506;9.050;2022-12-18T19:42:47;-2.70;96.00
13488;DHT22;6816;48.506;9.050;2022-12-18T19:45:56;-2.90;96.30
13488;DHT22;6816;48.506;9.050;2022-12-18T19:48:58;-2.90;95.90
13488;DHT22;6816;48.506;9.050;2022-12-18T19:51:59;-2.90;96.10
13488;DHT22;6816;48.506;9.050;2022-12-18T19:54:59;-2.80;96.20
13488;DHT22;6816;48.506;9.050;2022-12-18T19:58:00;-2.80;96.30
13488;DHT22;6816;48.506;9.050;2022-12-18T20:01:01;-2.80;96.40
13488;DHT22;6816;48.506;9.050;2022-12-18T20:04:02;-2.80;96.40
13488;DHT22;6816;48.506;9.050;2022-12-18T20:07:02;-2.70;96.50
13488;DHT22;6816;48.506;9.050;2022-12-18T20:10:05;-2.70;96.60
13488;DHT22;6816;48.506;9.050;2022-12-18T20:13:06;-2.60;96.60
13488;DHT22;6816;48.506;9.050;2022-12-18T20:16:06;-2.60;96.70
13488;DHT22;6816;48.506;9.050;2022-12-18T20:19:08;-2.60;96.70
13488;DHT22;6816;48.506;9.050;2022-12-18T20:22:09;-2.50;96.70
13488;DHT22;6816;48.506;9.050;2022-12-18T20:25:10;-2.50;96.70
13488;DHT22;6816;48.506;9.050;2022-12-18T20:28:11;-2.40;96.80
13488;DHT22;6816;48.506;9.050;2022-12-18T20:31:11;-2.40;96.80
13488;DHT22;6816;48.506;9.050;2022-12-18T20:34:12;-2.40;96.80
13488;DHT22;6816;48.506;9.050;2022-12-18T20:37:13;-2.40;96.80
13488;DHT22;6816;48.506;9.050;2022-12-18T20:40:14;-2.20;96.90
13488;DHT22;6816;48.506;9.050;2022-12-18T20:43:14;-2.30;96.80
13488;DHT22;6816;48.506;9.050;2022-12-18T20:46:16;-2.20;96.90
13488;DHT22;6816;48.506;9.050;2022-12-18T20:49:17;-2.20;96.80
13488;DHT22;6816;48.506;9.050;2022-12-18T20:52:17;-2.00;96.90
13488;DHT22;6816;48.506;9.050;2022-12-18T20:55:18;-2.20;96.80
13488;DHT22;6816;48.506;9.050;2022-12-18T20:58:19;-2.20;96.80
13488;DHT22;6816;48.506;9.050;2022-12-18T21:01:20;-2.20;96.80
13488;DHT22;6816;48.506;9.050;2022-12-18T21:04:21;-2.20;96.80
13488;DHT22;6816;48.506;9.050;2022-12-18T21:07:21;-2.20;96.80
13488;DHT22;6816;48.506;9.050;2022-12-18T21:10:22;-2.10;96.80
13488;DHT22;6816;48.506;9.050;2022-12-18T21:13:23;-2.10;96.80
13488;DHT22;6816;48.506;9.050;2022-12-18T21:16:23;-2.10;96.80
13488;DHT22;6816;48.506;9.050;2022-12-18T21:19:25;-2.10;96.80
13488;DHT22;6816;48.506;9.050;2022-12-18T21:22:26;-2.10;96.90
13488;DHT22;6816;48.506;9.050;2022-12-18T21:25:28;-2.10;96.90
13488;DHT22;6816;48.506;9.050;2022-12-18T21:28:29;-2.10;96.90
13488;DHT22;6816;48.506;9.050;2022-12-18T21:31:32;-2.10;97.00
13488;DHT22;6816;48.506;9.050;2022-12-18T21:34:33;-2.00;97.30
13488;DHT22;6816;48.506;9.050;2022-12-18T21:37:34;-2.00;97.00
13488;DHT22;6816;48.506;9.050;2022-12-18T21:40:35;-2.00;97.00
13488;DHT22;6816;48.506;9.050;2022-12-18T21:43:38;-2.00;97.00
13488;DHT22;6816;48.506;9.050;2022-12-18T21:47:05;-2.00;97.10
13488;DHT22;6816;48.506;9.050;2022-12-18T21:50:06;-1.90;97.10
13488;DHT22;6816;48.506;9.050;2022-12-18T21:53:06;-1.90;97.20
13488;DHT22;6816;48.506;9.050;2022-12-18T21:56:07;-1.90;97.20
13488;DHT22;6816;48.506;9.050;2022-12-18T21:59:08;-1.90;97.30
13488;DHT22;6816;48.506;9.050;2022-12-18T22:02:15;-1.70;97.70
13488;DHT22;6816;48.506;9.050;2022-12-18T22:05:16;-1.80;97.20
13488;DHT22;6816;48.506;9.050;2022-12-18T22:08:16;-1.80;97.40
13488;DHT22;6816;48.506;9.050;2022-12-18T22:11:17;-1.70;97.40
13488;DHT22;6816;48.506;9.050;2022-12-18T22:14:18;-1.70;97.40
13488;DHT22;6816;48.506;9.050;2022-12-18T22:17:19;-1.70;97.40
13488;DHT22;6816;48.506;9.050;2022-12-18T22:20:19;-1.60;97.50
13488;DHT22;6816;48.506;9.050;2022-12-18T22:23:20;-1.60;97.50
13488;DHT22;6816;48.506;9.050;2022-12-18T22:26:21;-1.60;97.50
13488;DHT22;6816;48.506;9.050;2022-12-18T22:29:23;-1.60;97.50
13488;DHT22;6816;48.506;9.050;2022-12-18T22:32:42;-1.50;97.60
13488;DHT22;6816;48.506;9.050;2022-12-18T22:35:43;-1.50;97.60
13488;DHT22;6816;48.506;9.050;2022-12-18T22:38:45;-1.50;97.60
13488;DHT22;6816;48.506;9.050;2022-12-18T22:41:46;-1.40;97.60
13488;DHT22;6816;48.506;9.050;2022-12-18T22:44:47;-1.20;97.70
13488;DHT22;6816;48.506;9.050;2022-12-18T22:47:48;-1.30;97.70
13488;DHT22;6816;48.506;9.050;2022-12-18T22:50:48;-1.40;97.60
13488;DHT22;6816;48.506;9.050;2022-12-18T22:53:49;-1.30;97.60
13488;DHT22;6816;48.506;9.050;2022-12-18T22:56:50;-1.30;97.60
13488;DHT22;6816;48.506;9.050;2022-12-18T22:59:50;-1.30;97.60
13488;DHT22;6816;48.506;9.050;2022-12-18T23:02:52;-1.30;97.60
13488;DHT22;6816;48.506;9.050;2022-12-18T23:05:52;-1.30;97.60
13488;DHT22;6816;48.506;9.050;2022-12-18T23:09:00;-1.30;97.60
13488;DHT22;6816;48.506;9.050;2022-12-18T23:12:02;-1.30;97.60
13488;DHT22;6816;48.506;9.050;2022-12-18T23:15:04;-1.20;97.60
13488;DHT22;6816;48.506;9.050;2022-12-18T23:18:04;-1.20;97.90
13488;DHT22;6816;48.506;9.050;2022-12-18T23:21:06;-1.20;97.70
13488;DHT22;6816;48.506;9.050;2022-12-18T23:24:07;-1.00;97.70
13488;DHT22;6816;48.506;9.050;2022-12-18T23:27:08;-1.20;97.70
13488;DHT22;6816;48.506;9.050;2022-12-18T23:30:10;-1.20;97.80
13488;DHT22;6816;48.506;9.050;2022-12-18T23:33:10;-1.20;97.80
13488;DHT22;6816;48.506;9.050;2022-12-18T23:36:12;-1.10;97.80
13488;DHT22;6816;48.506;9.050;2022-12-18T23:39:13;-1.10;98.20
13488;DHT22;6816;48.506;9.050;2022-12-18T23:42:14;-1.10;97.90
13488;DHT22;6816;48.506;9.050;2022-12-18T23:45:15;-1.10;97.90
13488;DHT22;6816;48.506;9.050;2022-12-18T23:48:15;-1.00;97.90
13488;DHT22;6816;48.506;9.050;2022-12-18T23:51:18;-1.00;97.90
13488;DHT22;6816;48.506;9.050;2022-12-18T23:54:19;-1.00;97.90
13488;DHT22;6816;48.506;9.050;2022-12-18T23:57:20;-1.00;97.90
